createdAt,value
2018-02-23T00:06:33.498Z,-0.2
2018-02-23T00:23:05.671Z,0.2
2018-02-23T00:56:12.405Z,0.2
2018-02-23T01:12:44.023Z,0.2
2018-02-23T01:29:16.751Z,0.2
2018-02-23T01:45:48.966Z,0.2
2018-02-23T02:18:54.160Z,0.2
2018-02-23T02:35:26.649Z,0.2
2018-02-23T02:51:59.648Z,0.2
2018-02-23T03:25:04.738Z,-0.2
2018-02-23T03:41:36.925Z,-0.2
2018-02-23T03:58:09.568Z,-0.5
2018-02-23T04:14:41.715Z,-0.8
2018-02-23T04:31:13.630Z,-0.8
2018-02-23T04:47:45.551Z,-0.8
2018-02-23T05:20:49.562Z,-1.1
2018-02-23T05:37:21.351Z,-1.4
2018-02-23T05:53:53.491Z,-1.1
2018-02-23T06:10:25.274Z,-1.4
2018-02-23T06:26:57.437Z,-1.4
2018-02-23T07:00:00.752Z,-1.4
2018-02-23T07:33:04.383Z,-1.1
2018-02-23T07:49:36.178Z,-0.8
2018-02-23T08:14:24.778Z,-0.5
2018-02-23T08:30:56.983Z,0.2
2018-02-23T08:47:30.069Z,0.5
2018-02-23T09:04:04.266Z,0.5
2018-02-23T09:20:36.856Z,0.8
2018-02-23T09:37:09.900Z,0.5
2018-02-23T09:53:43.399Z,0.5
2018-02-23T10:00:20.314Z,0.8
2018-02-23T10:16:53.786Z,1.1
2018-02-23T10:23:31.602Z,1.4
2018-02-23T10:36:45.680Z,2.1
2018-02-23T10:40:04.454Z,2.1
2018-02-23T10:50:00.991Z,2.1
2018-02-23T10:53:19.309Z,2.1
2018-02-23T11:09:53.757Z,2.4
2018-02-23T11:26:27.824Z,2.4
2018-02-23T11:59:35.682Z,2.7
2018-02-23T12:16:10.131Z,2.4
2018-02-23T12:32:44.545Z,3.0
2018-02-23T12:49:18.712Z,3.0
2018-02-23T13:05:53.485Z,3.0
2018-02-23T13:22:27.832Z,3.0
2018-02-23T13:39:02.341Z,3.0
2018-02-23T13:55:37.164Z,3.0
2018-02-23T14:12:11.361Z,3.0
2018-02-23T14:28:45.961Z,3.0
2018-02-23T14:45:20.395Z,3.0
2018-02-23T15:01:55.056Z,2.7
2018-02-23T15:18:29.021Z,2.4
2018-02-23T15:35:04.418Z,2.1
2018-02-23T15:51:36.910Z,1.8
2018-02-23T16:08:10.347Z,1.8
2018-02-23T16:24:43.655Z,1.4
2018-02-23T16:41:16.894Z,1.1
2018-02-23T16:57:50.206Z,0.8
2018-02-23T17:14:23.377Z,0.5
2018-02-23T17:30:55.947Z,0.2
2018-02-23T17:47:29.167Z,-0.2
2018-02-23T18:04:01.407Z,-0.2
2018-02-23T18:20:34.276Z,-0.5
2018-02-23T18:37:06.893Z,-0.5
2018-02-23T19:10:11.617Z,-0.8
2018-02-23T19:26:44.942Z,-0.8
2018-02-23T19:43:16.418Z,-1.1
2018-02-23T19:59:49.184Z,-1.1
2018-02-23T20:16:20.585Z,-1.1
2018-02-23T20:32:52.947Z,-1.1
2018-02-23T20:49:23.681Z,-1.4
2018-02-23T21:05:55.324Z,-1.4
2018-02-23T21:22:26.950Z,-1.8
2018-02-23T21:38:58.591Z,-1.8
2018-02-23T21:55:32.616Z,-1.8
2018-02-23T22:12:04.088Z,-2.1
2018-02-23T22:28:35.468Z,-2.1
2018-02-23T22:45:02.749Z,-2.1
2018-02-23T23:01:34.807Z,-2.4
2018-02-23T23:18:05.466Z,-2.4
2018-02-23T23:34:36.495Z,-2.4
